Pine Bush, NY (12566)

2:01 PM EDT on March 28, 2015 (GMT -0400)
MonkWeather | | Change Station
CLOSE
Current Station
Personal Weather Station
Location: Pine Bush, NY
Elevation: 423 ft
Nearby Weather Stations

Elev 423 ft 41.63 °N, 74.30 °W | Updated 7 minutes ago

Overcast
Overcast
32.6 °F
Feels Like 33 °F
N
0.0
Wind Variable Wind from North
Gusts 2.0 mph

Today
High -- | Low -- °F
--% Chance of Precip.
Yesterday
High -- | Low -- °F
Precip. -- in
6:47 AM 7:17 PM
Waxing Gibbous, 64% visible
Pressure 29.85 in
Visibility 3.0 miles
Clouds Few 1400 ft
Scattered Clouds 2000 ft
Overcast 3500 ft
Windchill 33 °F
Dew Point 26 °F
Humidity 77%
Rainfall -999.00 in
Snow Depth Not available.
UV 2 out of 12
Pollen 8.00 out of 12
Air Quality Not available.
Flu Activity Not available.
SPECI KMGJ 281757Z AUTO 05007KT 3SM -SN FEW014 SCT020 OVC035 01/M02 A2985 RMK AO2 P0000 T00111022 TSNO

More Conditions Fewer Conditions

Pressure 29.85 in
Visibility 3.0 miles
Clouds Few 1400 ft
Scattered Clouds 2000 ft
Overcast 3500 ft
Windchill 33 °F
Dew Point 26 °F
Humidity 77%
Rainfall -999.00 in
Snow Depth Not available.
UV 2 out of 12
Pollen 8.00 out of 12
Air Quality Not available.
Flu Activity Not available.
SPECI KMGJ 281757Z AUTO 05007KT 3SM -SN FEW014 SCT020 OVC035 01/M02 A2985 RMK AO2 P0000 T00111022 TSNO

More Conditions Fewer Conditions

10-Day Weather Forecast

Almanac

Astronomy

Mar. 28, 2015 Rise Set
Actual Time
Civil Twilight
Nautical Twilight
Astronomical Twilight
Moon
Length of Visible Light
Length of Day
Tomorrow will be .
, % of the Moon is Illuminated

Today's Extremes

State Highs State Lows

Community

WunderPhotos

Upload Photos

1,809,042 photos uploaded!

WunderBlogs® & News

Nearby

Air Quality

  Air Quality AQ Index Pollutant
Not available.

Snow Depth

Station Depth Elevation

Earthquake Activity

City Distance Mag. Time & Date
Minimum magnitude displayed is 2.5.

Coastal Water Temperatures

Place Temperature

Stations

Nearby Weather Stations

Station Location Temp. Windchill Dew Point Humidity Wind Precip. Elev Updated Type